Time;durP1;ratioP1;P1;durP2;ratioP2;P2;SDS_P1;SDS_P2;PMS_P1;PMS_P2;Temp;Humidity;BMP_temperature;BMP_pressure;BME280_temperature;BME280_humidity;BME280_pressure;Samples;Min_cycle;Max_cycle;Signal;HPM_P1;HPM_P2
2023/01/31 00:02:25;;;;;;;47.30;4.35;;;;;;;4.66;100.00;102437.28;5012328;28;20030;-42
2023/01/31 00:04:50;;;;;;;80.78;7.78;;;;;;;4.66;100.00;102434.63;5021635;28;20037;-42
2023/01/31 00:07:16;;;;;;;48.78;4.78;;;;;;;4.66;100.00;102431.94;5031111;28;20542;-42
2023/01/31 00:09:41;;;;;;;60.45;5.85;;;;;;;4.70;100.00;102430.81;5015912;28;20038;-42
2023/01/31 00:12:06;;;;;;;35.92;4.07;;;;;;;4.72;100.00;102428.88;5011449;28;20113;-42
2023/01/31 00:14:31;;;;;;;56.47;5.30;;;;;;;4.71;100.00;102424.50;5011973;28;20058;-42
2023/01/31 00:16:57;;;;;;;40.15;5.18;;;;;;;4.72;100.00;102402.22;5025886;28;20099;-43
2023/01/31 00:19:23;;;;;;;47.70;4.72;;;;;;;4.69;100.00;102397.94;5018254;28;20148;-41
2023/01/31 00:21:48;;;;;;;55.70;5.45;;;;;;;4.68;100.00;102395.38;5028268;28;20069;-41
2023/01/31 00:24:13;;;;;;;38.60;4.22;;;;;;;4.67;100.00;102391.00;5031123;28;20029;-41
2023/01/31 00:26:39;;;;;;;38.72;4.10;;;;;;;4.68;100.00;102396.22;5030936;28;20036;-41
2023/01/31 00:29:05;;;;;;;41.80;4.07;;;;;;;4.65;100.00;102379.59;5019916;28;20065;-41
2023/01/31 00:31:32;;;;;;;36.25;3.42;;;;;;;4.64;100.00;102381.41;5013311;28;20045;-42
2023/01/31 00:33:57;;;;;;;36.10;4.40;;;;;;;4.61;100.00;102379.81;5010954;28;20084;-41
2023/01/31 00:36:27;;;;;;;35.55;3.85;;;;;;;4.58;100.00;102380.03;5011280;28;20026;-41
2023/01/31 00:38:55;;;;;;;36.33;3.78;;;;;;;4.59;100.00;102380.88;5011114;28;20084;-42
2023/01/31 00:41:22;;;;;;;45.88;5.03;;;;;;;4.57;100.00;102367.63;5011309;28;20065;-41
2023/01/31 00:43:48;;;;;;;39.33;4.70;;;;;;;4.55;100.00;102369.53;5022533;28;20213;-41
2023/01/31 00:46:14;;;;;;;50.28;4.90;;;;;;;4.53;100.00;102366.16;5031431;28;20044;-43
2023/01/31 00:48:39;;;;;;;59.78;5.10;;;;;;;4.53;100.00;102366.16;5029711;28;20120;-41
2023/01/31 00:51:05;;;;;;;39.47;4.95;;;;;;;4.52;100.00;102353.75;5029109;28;20040;-43
2023/01/31 00:53:31;;;;;;;33.92;4.22;;;;;;;4.50;100.00;102347.69;5029924;28;20030;-41
2023/01/31 00:56:06;;;;;;;40.30;4.95;;;;;;;4.48;100.00;102352.28;5030220;28;20095;-43
2023/01/31 00:58:31;;;;;;;58.10;4.95;;;;;;;4.51;100.00;102349.41;5025983;28;20030;-43
2023/01/31 01:01:04;;;;;;;36.38;4.53;;;;;;;4.51;100.00;102346.72;5021324;28;20465;-41
2023/01/31 01:03:30;;;;;;;43.67;3.75;;;;;;;4.52;100.00;102351.09;5030758;28;20036;-42
2023/01/31 01:05:55;;;;;;;36.47;4.63;;;;;;;4.53;100.00;102344.81;5029732;28;20065;-42
2023/01/31 01:08:20;;;;;;;48.92;5.95;;;;;;;4.53;100.00;102339.47;5030046;28;20029;-43
2023/01/31 01:10:46;;;;;;;44.35;4.50;;;;;;;4.50;100.00;102346.81;5029117;28;20033;-43
2023/01/31 01:13:11;;;;;;;40.53;4.30;;;;;;;4.48;100.00;102340.75;5030467;28;20033;-42
2023/01/31 01:15:37;;;;;;;41.25;4.53;;;;;;;4.44;100.00;102331.25;5030500;28;20504;-42
2023/01/31 01:18:03;;;;;;;43.45;4.25;;;;;;;4.40;100.00;102328.81;5029236;28;20032;-41
2023/01/31 01:20:28;;;;;;;41.63;4.75;;;;;;;4.38;100.00;102332.53;5021591;28;20033;-40
2023/01/31 01:22:53;;;;;;;55.15;7.03;;;;;;;4.35;100.00;102332.75;5010739;28;20033;-42
2023/01/31 01:25:19;;;;;;;69.63;6.28;;;;;;;4.37;100.00;102338.81;5028611;28;20033;-42
2023/01/31 01:27:44;;;;;;;47.00;4.82;;;;;;;4.36;100.00;102337.97;5030342;28;20025;-41
2023/01/31 01:30:10;;;;;;;49.22;6.55;;;;;;;4.40;100.00;102339.47;5012639;28;20033;-43
2023/01/31 01:32:36;;;;;;;56.83;5.78;;;;;;;4.42;100.00;102350.00;5020446;28;20037;-41
2023/01/31 01:35:01;;;;;;;52.72;5.28;;;;;;;4.47;100.00;102360.38;5030451;28;20076;-42
2023/01/31 01:37:29;;;;;;;54.53;6.28;;;;;;;4.48;100.00;102354.94;5017736;28;20385;-41
2023/01/31 01:39:54;;;;;;;41.17;5.05;;;;;;;4.54;100.00;102351.84;5027848;28;20036;-42
2023/01/31 01:42:22;;;;;;;45.63;7.15;;;;;;;4.57;100.00;102354.28;5029293;28;20033;-42
2023/01/31 01:44:56;;;;;;;50.05;5.95;;;;;;;4.59;100.00;102360.38;5030347;28;20021;-41
2023/01/31 01:47:38;;;;;;;67.72;6.40;;;;;;;4.62;100.00;102356.66;5028740;28;20412;-42
2023/01/31 01:50:06;;;;;;;51.67;6.53;;;;;;;4.65;100.00;102352.91;5010760;28;20126;-41
2023/01/31 01:52:35;;;;;;;58.00;7.00;;;;;;;4.68;100.00;102355.38;5015785;28;20116;-41
2023/01/31 01:55:06;;;;;;;53.15;5.97;;;;;;;4.70;100.00;102364.13;5010741;28;20391;-41
2023/01/31 01:57:34;;;;;;;50.25;6.28;;;;;;;4.73;100.00;102354.09;5011759;28;20033;-41
2023/01/31 02:00:03;;;;;;;54.75;5.55;;;;;;;4.79;100.00;102347.47;5011736;28;20457;-41
2023/01/31 02:02:29;;;;;;;68.13;7.88;;;;;;;4.84;100.00;102354.22;5030093;28;20029;-40
2023/01/31 02:04:54;;;;;;;69.07;6.75;;;;;;;4.94;100.00;102357.06;5032029;28;20040;-42
2023/01/31 02:07:20;;;;;;;55.65;6.35;;;;;;;5.03;100.00;102359.09;5033905;28;20029;-41
2023/01/31 02:10:22;;;;;;;50.88;6.03;;;;;;;5.15;100.00;102367.19;5017647;28;20029;-42
2023/01/31 02:12:47;;;;;;;57.42;5.95;;;;;;;5.20;100.00;102359.72;5011476;28;20034;-42
2023/01/31 02:15:13;;;;;;;68.18;6.88;;;;;;;5.25;100.00;102358.41;5013766;28;20091;-42
2023/01/31 02:17:38;;;;;;;40.08;6.65;;;;;;;5.31;100.00;102359.78;5012738;28;20037;-43
2023/01/31 02:20:25;;;;;;;46.88;5.93;;;;;;;5.33;100.00;102359.69;5028287;28;21573;-42
2023/01/31 02:23:01;;;;;;;72.63;7.90;;;;;;;5.37;100.00;102356.69;5017610;28;20057;-42
2023/01/31 02:25:35;;;;;;;46.30;6.95;;;;;;;5.37;100.00;102351.34;5026003;28;20362;-42
2023/01/31 02:28:06;;;;;;;59.03;6.15;;;;;;;5.36;100.00;102354.97;5013858;28;20033;-42
2023/01/31 02:30:43;;;;;;;52.17;7.72;;;;;;;5.37;100.00;102351.34;5020223;28;20041;-41
2023/01/31 02:33:30;;;;;;;58.22;6.72;;;;;;;5.39;100.00;102348.56;5032083;28;20069;-42
2023/01/31 02:36:12;;;;;;;38.83;6.45;;;;;;;5.42;100.00;102351.84;5019789;28;20512;-41
2023/01/31 02:38:40;;;;;;;59.75;6.53;;;;;;;5.46;100.00;102342.66;5031518;28;20026;-41
2023/01/31 02:41:16;;;;;;;48.72;6.53;;;;;;;5.49;100.00;102338.91;5031101;28;20033;-42
2023/01/31 02:46:53;;;;;;;72.18;7.80;;;;;;;5.56;100.00;102334.00;5029797;28;20043;-43
2023/01/31 02:49:35;;;;;;;54.25;6.57;;;;;;;5.57;100.00;102327.69;5032366;28;20028;-39
2023/01/31 02:52:23;;;;;;;71.65;9.27;;;;;;;5.63;100.00;102316.53;5014057;28;20053;-40
2023/01/31 02:57:59;;;;;;;63.22;6.90;;;;;;;5.62;100.00;102329.03;5018394;28;20092;-42
2023/01/31 03:00:25;;;;;;;49.85;7.80;;;;;;;5.64;100.00;102327.13;5031026;28;20114;-43
2023/01/31 03:02:51;;;;;;;48.00;6.75;;;;;;;5.66;100.00;102316.28;5031576;28;20034;-43
2023/01/31 03:05:17;;;;;;;60.83;6.90;;;;;;;5.67;100.00;102320.69;5030363;28;20025;-42
2023/01/31 03:07:46;;;;;;;62.58;6.78;;;;;;;5.66;100.00;102314.50;5012840;28;20030;-41
2023/01/31 03:10:19;;;;;;;50.38;6.97;;;;;;;5.68;100.00;102309.88;5018376;28;20041;-41
2023/01/31 03:13:10;;;;;;;59.35;7.13;;;;;;;5.64;100.00;102311.09;5032001;28;20029;-40
2023/01/31 03:19:13;;;;;;;59.03;6.88;;;;;;;5.62;100.00;102325.53;5020267;28;20091;-40
2023/01/31 03:21:44;;;;;;;63.70;8.75;;;;;;;5.60;100.00;102327.44;5030177;28;20034;-41
2023/01/31 03:24:10;;;;;;;48.83;7.15;;;;;;;5.58;100.00;102316.00;5030556;28;20057;-43
2023/01/31 03:26:35;;;;;;;57.50;7.25;;;;;;;5.57;100.00;102317.00;5031071;28;20093;-42
2023/01/31 03:29:02;;;;;;;39.15;6.00;;;;;;;5.55;100.00;102311.75;5020005;28;20101;-42
2023/01/31 03:31:48;;;;;;;58.40;6.40;;;;;;;5.52;100.00;102300.44;5020003;28;20076;-42
2023/01/31 03:34:14;;;;;;;52.60;6.88;;;;;;;5.53;100.00;102302.16;5030890;28;20025;-42
2023/01/31 03:37:05;;;;;;;53.42;6.78;;;;;;;5.47;100.00;102298.97;5031375;28;20072;-42
2023/01/31 03:39:30;;;;;;;59.28;7.63;;;;;;;5.49;100.00;102294.38;5030115;28;20021;-42
2023/01/31 03:42:10;;;;;;;54.40;5.70;;;;;;;5.50;100.00;102285.41;5021330;28;20156;-41
2023/01/31 03:44:42;;;;;;;49.67;6.60;;;;;;;5.50;100.00;102284.53;5029922;28;20029;-41
2023/01/31 03:47:14;;;;;;;49.28;5.47;;;;;;;5.55;100.00;102273.50;5030230;28;20053;-41
2023/01/31 03:49:41;;;;;;;36.35;4.95;;;;;;;5.57;100.00;102284.94;5029873;28;20025;-41
2023/01/31 03:52:08;;;;;;;49.40;6.57;;;;;;;5.59;100.00;102285.69;5020483;28;20033;-42
2023/01/31 03:54:38;;;;;;;43.10;5.32;;;;;;;5.60;100.00;102284.72;5031257;28;20101;-42
2023/01/31 03:57:11;;;;;;;53.53;6.15;;;;;;;5.62;100.00;102286.31;5030388;28;20369;-41
2023/01/31 03:59:38;;;;;;;61.90;5.72;;;;;;;5.65;100.00;102283.41;5021623;28;20030;-41
2023/01/31 04:02:05;;;;;;;48.05;5.57;;;;;;;5.68;100.00;102276.97;5009792;28;20030;-42
2023/01/31 04:04:36;;;;;;;51.83;4.88;;;;;;;5.72;100.00;102270.44;5014577;28;20036;-41
2023/01/31 04:07:02;;;;;;;45.13;4.93;;;;;;;5.75;100.00;102264.88;5030098;28;20485;-41
2023/01/31 04:09:27;;;;;;;43.58;5.68;;;;;;;5.79;100.00;102271.66;5023082;28;20045;-41
2023/01/31 04:11:52;;;;;;;56.70;6.05;;;;;;;5.81;100.00;102263.56;5017788;28;20389;-41
2023/01/31 04:14:18;;;;;;;40.08;4.90;;;;;;;5.83;100.00;102264.28;5031309;28;20018;-42
2023/01/31 04:16:44;;;;;;;53.78;5.80;;;;;;;5.84;100.00;102261.50;5026259;28;20643;-44
2023/01/31 04:19:09;;;;;;;66.38;7.75;;;;;;;5.85;100.00;102259.69;5016178;28;20025;-43
2023/01/31 04:21:35;;;;;;;35.65;4.82;;;;;;;5.82;100.00;102255.44;5024642;28;20022;-42
2023/01/31 04:24:00;;;;;;;36.83;4.05;;;;;;;5.84;100.00;102250.81;5011407;28;20076;-42
2023/01/31 04:26:25;;;;;;;38.80;4.57;;;;;;;5.84;100.00;102257.97;5010126;28;20037;-42
2023/01/31 04:28:51;;;;;;;38.42;4.20;;;;;;;5.83;100.00;102249.09;5013631;28;20588;-42
2023/01/31 04:31:16;;;;;;;34.90;4.25;;;;;;;5.82;100.00;102239.41;5028969;28;20026;-42
2023/01/31 04:33:41;;;;;;;44.22;4.40;;;;;;;5.85;100.00;102227.63;5011637;28;20109;-42
2023/01/31 04:36:07;;;;;;;47.65;5.18;;;;;;;5.85;100.00;102215.13;5011232;28;20032;-42
2023/01/31 04:38:33;;;;;;;33.42;4.47;;;;;;;5.87;100.00;102214.97;5011460;28;20490;-42
2023/01/31 04:40:59;;;;;;;30.15;4.25;;;;;;;5.87;100.00;102226.53;5029631;28;20033;-42
2023/01/31 04:43:24;;;;;;;30.58;3.30;;;;;;;5.89;100.00;102224.59;5029003;28;20439;-40
2023/01/31 04:45:50;;;;;;;41.88;3.95;;;;;;;5.90;100.00;102214.78;5019636;28;20038;-42
2023/01/31 04:48:15;;;;;;;41.80;4.78;;;;;;;5.92;100.00;102223.50;5018027;28;20511;-42
2023/01/31 04:50:41;;;;;;;37.78;4.30;;;;;;;5.97;100.00;102220.50;5016359;28;20050;-41
2023/01/31 04:53:07;;;;;;;48.08;5.05;;;;;;;5.98;100.00;102222.19;5020015;28;20045;-42
2023/01/31 04:55:33;;;;;;;38.22;3.80;;;;;;;5.98;100.00;102207.03;5015968;28;20097;-41
2023/01/31 04:57:58;;;;;;;41.03;4.60;;;;;;;5.98;100.00;102206.16;5025661;28;20068;-42
2023/01/31 05:00:24;;;;;;;34.30;3.65;;;;;;;5.99;100.00;102197.19;5024900;28;20021;-41
2023/01/31 05:02:49;;;;;;;28.13;3.58;;;;;;;6.00;100.00;102193.53;5022040;28;20021;-42
2023/01/31 05:05:15;;;;;;;32.97;3.17;;;;;;;6.01;100.00;102189.94;5023844;28;20540;-41
2023/01/31 05:07:41;;;;;;;38.65;3.85;;;;;;;6.02;100.00;102183.59;5025973;28;20021;-42
2023/01/31 05:10:08;;;;;;;42.63;3.97;;;;;;;6.01;100.00;102189.94;5027519;28;20087;-42
2023/01/31 05:12:33;;;;;;;50.65;4.95;;;;;;;6.03;100.00;102179.94;5026585;28;20061;-42
2023/01/31 05:14:59;;;;;;;43.35;4.68;;;;;;;6.04;100.00;102193.19;5015895;28;20498;-42
2023/01/31 05:17:28;;;;;;;40.50;4.53;;;;;;;6.07;100.00;102194.78;5025858;28;20029;-42
2023/01/31 05:19:57;;;;;;;39.08;4.75;;;;;;;6.08;100.00;102202.69;5025118;28;20029;-41
2023/01/31 05:22:22;;;;;;;44.35;4.65;;;;;;;6.10;100.00;102186.53;5021384;28;20052;-41
2023/01/31 05:24:49;;;;;;;42.35;4.68;;;;;;;6.10;100.00;102192.72;5028679;28;20543;-42
2023/01/31 05:27:14;;;;;;;36.70;4.00;;;;;;;6.13;100.00;102189.81;5024209;28;20041;-43
2023/01/31 05:29:40;;;;;;;34.75;4.40;;;;;;;6.14;100.00;102193.34;5012005;28;20048;-42
2023/01/31 05:32:05;;;;;;;38.85;3.58;;;;;;;6.15;100.00;102181.66;5027608;28;20468;-43
2023/01/31 05:34:32;;;;;;;36.47;3.67;;;;;;;6.17;100.00;102179.72;5028400;28;20037;-42
2023/01/31 05:36:58;;;;;;;33.95;4.28;;;;;;;6.18;100.00;102188.59;5029368;28;20029;-41
2023/01/31 05:39:24;;;;;;;38.35;3.60;;;;;;;6.19;100.00;102191.16;5024556;28;20651;-42
2023/01/31 05:41:49;;;;;;;33.80;4.00;;;;;;;6.20;100.00;102195.53;5020596;28;20141;-42
2023/01/31 05:44:15;;;;;;;30.90;3.05;;;;;;;6.21;100.00;102197.22;5029979;28;20037;-42
2023/01/31 05:46:40;;;;;;;30.27;3.60;;;;;;;6.20;100.00;102205.38;5017873;28;20087;-41
2023/01/31 05:49:06;;;;;;;25.00;3.67;;;;;;;6.19;100.00;102201.84;5020067;28;20037;-42
2023/01/31 05:51:31;;;;;;;38.05;3.88;;;;;;;6.19;100.00;102204.53;5026761;28;20413;-43
2023/01/31 05:53:57;;;;;;;47.05;4.28;;;;;;;6.17;100.00;102202.94;5023808;28;20133;-41
2023/01/31 05:56:22;;;;;;;30.75;3.97;;;;;;;6.18;100.00;102196.63;5027578;28;20038;-41
2023/01/31 05:58:49;;;;;;;48.08;4.45;;;;;;;6.20;100.00;102195.53;5026148;28;20049;-41
2023/01/31 06:01:20;;;;;;;47.50;4.07;;;;;;;6.21;100.00;102207.91;5033471;28;20056;-43
2023/01/31 06:03:45;;;;;;;41.83;3.95;;;;;;;6.23;100.00;102195.28;5024029;28;20401;-42
2023/01/31 06:06:11;;;;;;;34.28;3.75;;;;;;;6.23;100.00;102200.63;5027163;28;20112;-42
2023/01/31 06:08:37;;;;;;;38.22;4.40;;;;;;;6.23;100.00;102203.31;5028836;28;20115;-42
2023/01/31 06:11:03;;;;;;;31.42;2.95;;;;;;;6.23;100.00;102208.66;5029243;28;20517;-42
2023/01/31 06:13:29;;;;;;;33.30;3.30;;;;;;;6.26;100.00;102208.41;5033093;28;20041;-42
2023/01/31 06:15:55;;;;;;;49.13;5.22;;;;;;;6.24;100.00;102207.69;5022608;28;20029;-42
2023/01/31 06:18:20;;;;;;;43.85;4.30;;;;;;;6.24;100.00;102204.16;5014177;28;20335;-40
2023/01/31 06:20:45;;;;;;;43.50;4.57;;;;;;;6.21;100.00;102207.06;5017607;28;20033;-42
2023/01/31 06:23:11;;;;;;;32.67;3.50;;;;;;;6.20;100.00;102192.84;5014177;28;20473;-42
2023/01/31 06:25:36;;;;;;;40.45;4.20;;;;;;;6.16;100.00;102186.03;5020411;28;20033;-42
2023/01/31 06:28:01;;;;;;;41.67;3.80;;;;;;;6.13;100.00;102205.88;5024845;28;20030;-42
2023/01/31 06:30:27;;;;;;;42.90;3.45;;;;;;;6.10;100.00;102194.53;5025524;28;20421;-42
2023/01/31 06:32:52;;;;;;;34.25;3.95;;;;;;;6.08;100.00;102204.50;5025124;28;20050;-42
2023/01/31 06:35:17;;;;;;;36.78;2.65;;;;;;;6.01;100.00;102206.81;5023826;28;20053;-42
2023/01/31 06:37:43;;;;;;;39.00;3.92;;;;;;;5.92;100.00;102181.63;5015766;28;20061;-43
2023/01/31 06:40:09;;;;;;;30.77;3.75;;;;;;;5.83;100.00;102189.50;5017839;28;20103;-42
2023/01/31 06:42:34;;;;;;;25.17;3.67;;;;;;;5.71;100.00;102180.56;5026462;28;20506;-42
2023/01/31 06:45:00;;;;;;;36.67;3.00;;;;;;;5.69;100.00;102182.53;5023895;28;20026;-43
2023/01/31 06:47:25;;;;;;;41.78;4.32;;;;;;;5.69;100.00;102174.53;5032543;28;20037;-43
2023/01/31 06:49:50;;;;;;;39.70;4.57;;;;;;;5.65;100.00;102173.03;5011203;28;20076;-42
2023/01/31 06:52:16;;;;;;;44.20;3.55;;;;;;;5.67;100.00;102176.44;5008035;28;20028;-42
2023/01/31 06:54:41;;;;;;;22.27;2.60;;;;;;;5.69;100.00;102169.19;5030642;28;20439;-42
2023/01/31 06:57:06;;;;;;;25.45;3.40;;;;;;;5.71;100.00;102167.22;5026244;28;20120;-41
2023/01/31 06:59:32;;;;;;;28.35;2.90;;;;;;;5.72;100.00;102159.09;5032512;28;20064;-43
2023/01/31 07:01:57;;;;;;;26.48;3.83;;;;;;;5.75;100.00;102147.34;5031715;28;20025;-40
2023/01/31 07:04:23;;;;;;;38.10;3.53;;;;;;;5.79;100.00;102148.78;5032549;28;20021;-43
2023/01/31 07:06:48;;;;;;;42.10;4.95;;;;;;;5.80;100.00;102133.63;5032474;28;20036;-42
2023/01/31 07:09:13;;;;;;;42.53;3.63;;;;;;;5.83;100.00;102138.72;5028886;28;20132;-42
2023/01/31 07:11:39;;;;;;;33.00;3.92;;;;;;;5.81;100.00;102138.00;5028875;28;20421;-41
2023/01/31 07:14:04;;;;;;;33.58;3.08;;;;;;;5.81;100.00;102130.81;5026183;28;20396;-42
2023/01/31 07:16:30;;;;;;;27.13;2.80;;;;;;;5.80;100.00;102118.44;5031954;28;20374;-41
2023/01/31 07:18:55;;;;;;;35.13;3.42;;;;;;;5.80;100.00;102129.13;5031848;28;20036;-41
2023/01/31 07:21:22;;;;;;;38.95;4.05;;;;;;;5.83;100.00;102122.69;5031804;28;20110;-42
2023/01/31 07:23:47;;;;;;;30.60;2.63;;;;;;;5.83;100.00;102134.22;5022696;28;20450;-40
2023/01/31 07:26:13;;;;;;;42.33;3.72;;;;;;;5.83;100.00;102123.53;5020039;28;20109;-40
2023/01/31 07:28:38;;;;;;;32.95;4.45;;;;;;;5.85;100.00;102124.28;5026508;28;20044;-41
2023/01/31 07:31:12;;;;;;;27.92;3.58;;;;;;;5.81;100.00;102122.81;5031139;28;20033;-43
2023/01/31 07:33:38;;;;;;;30.90;3.53;;;;;;;5.85;100.00;102126.09;5031840;28;20044;-41
2023/01/31 07:36:04;;;;;;;22.77;2.85;;;;;;;5.81;100.00;102130.81;5032175;28;20077;-39
2023/01/31 07:38:31;;;;;;;21.73;2.75;;;;;;;5.83;100.00;102109.34;5024215;28;20037;-40
2023/01/31 07:41:00;;;;;;;26.73;2.70;;;;;;;5.86;100.00;102117.94;5031162;28;20104;-40
2023/01/31 07:43:26;;;;;;;23.77;2.40;;;;;;;5.86;100.00;102109.94;5032110;28;20149;-42
2023/01/31 07:45:51;;;;;;;27.33;2.97;;;;;;;5.88;100.00;102099.16;5025257;28;20148;-40
2023/01/31 07:48:22;;;;;;;31.42;3.58;;;;;;;5.87;100.00;102103.63;5011641;28;20026;-40
2023/01/31 07:50:51;;;;;;;42.90;3.78;;;;;;;5.85;100.00;102089.53;5028009;28;20060;-40
2023/01/31 07:53:16;;;;;;;42.80;3.33;;;;;;;5.85;100.00;102100.22;5029602;28;20040;-41
2023/01/31 07:55:46;;;;;;;28.27;2.83;;;;;;;5.87;100.00;102097.41;5031282;28;20113;-40
2023/01/31 07:58:12;;;;;;;35.35;3.72;;;;;;;5.89;100.00;102101.69;5021457;28;20458;-42
2023/01/31 08:03:33;;;;;;;31.58;2.97;;;;;;;5.93;100.00;102103.19;5011387;28;20511;-40
2023/01/31 08:06:08;;;;;;;31.52;3.58;;;;;;;5.91;100.00;102093.56;5016672;28;20083;-41
2023/01/31 08:08:35;;;;;;;23.63;2.85;;;;;;;5.89;100.00;102103.50;5019554;28;20029;-42
2023/01/31 08:11:00;;;;;;;21.00;2.92;;;;;;;5.87;100.00;102098.28;5028987;28;20037;-41
2023/01/31 08:13:26;;;;;;;31.70;3.70;;;;;;;5.87;100.00;102092.94;5020357;28;20022;-41
2023/01/31 08:15:52;;;;;;;32.17;2.75;;;;;;;5.88;100.00;102089.28;5012586;28;20030;-41
2023/01/31 08:18:18;;;;;;;30.60;2.97;;;;;;;5.89;100.00;102087.47;5024091;28;20131;-41
2023/01/31 08:20:43;;;;;;;36.50;3.45;;;;;;;5.89;100.00;102085.63;5016305;28;20425;-41
2023/01/31 08:23:09;;;;;;;29.45;4.57;;;;;;;5.87;100.00;102079.59;5020921;28;20022;-41
2023/01/31 08:25:35;;;;;;;32.55;3.50;;;;;;;5.89;100.00;102074.94;5039398;28;20037;-41
2023/01/31 08:28:00;;;;;;;28.70;3.65;;;;;;;5.91;100.00;102075.69;5026823;28;20086;-41
2023/01/31 08:30:27;;;;;;;27.17;3.25;;;;;;;5.92;100.00;102088.09;5020374;28;20053;-40
2023/01/31 08:32:52;;;;;;;26.08;2.38;;;;;;;5.96;100.00;102064.69;5023047;28;20037;-42
2023/01/31 08:35:17;;;;;;;30.42;3.88;;;;;;;5.94;100.00;102064.78;5020776;28;20038;-42
2023/01/31 08:37:43;;;;;;;22.27;2.58;;;;;;;5.98;100.00;102064.53;5011920;28;20034;-42
2023/01/31 08:40:08;;;;;;;24.88;3.33;;;;;;;6.04;100.00;102072.09;5011297;28;20041;-42
2023/01/31 08:42:34;;;;;;;30.77;2.88;;;;;;;6.19;100.00;102067.31;5011413;28;20065;-41
2023/01/31 08:44:59;;;;;;;24.88;2.60;;;;;;;6.45;100.00;102060.75;5011357;28;20369;-42
2023/01/31 08:47:24;;;;;;;44.65;3.53;;;;;;;6.63;100.00;102054.84;5011419;28;20028;-41
2023/01/31 08:49:50;;;;;;;22.58;2.72;;;;;;;6.65;100.00;102047.53;5010853;28;20022;-41
2023/01/31 08:52:15;;;;;;;41.22;5.53;;;;;;;6.65;100.00;102053.75;5011015;28;20282;-41
2023/01/31 08:54:40;;;;;;;36.17;3.33;;;;;;;6.59;100.00;102048.91;5011471;28;20033;-42
2023/01/31 08:57:06;;;;;;;31.08;3.55;;;;;;;6.56;100.00;102062.53;5011168;28;20025;-41
2023/01/31 08:59:32;;;;;;;39.60;4.32;;;;;;;6.64;100.00;102061.91;5011349;28;20089;-42
2023/01/31 09:01:57;;;;;;;31.98;4.10;;;;;;;6.63;100.00;102062.88;5010907;28;20026;-42
2023/01/31 09:04:22;;;;;;;38.50;4.43;;;;;;;6.65;100.00;102069.78;5011397;28;20029;-41
2023/01/31 09:06:48;;;;;;;30.33;3.88;;;;;;;6.68;100.00;102063.34;5011391;28;20029;-42
2023/01/31 09:09:14;;;;;;;33.05;3.92;;;;;;;6.73;100.00;102070.00;5011266;28;20523;-42
2023/01/31 09:11:39;;;;;;;26.23;3.40;;;;;;;6.69;100.00;102067.69;5011560;28;20034;-41
2023/01/31 09:14:04;;;;;;;22.10;2.42;;;;;;;6.72;100.00;102057.63;5013859;28;20128;-42
2023/01/31 09:16:30;;;;;;;32.05;2.88;;;;;;;6.73;100.00;102061.97;5014898;28;20096;-42
2023/01/31 09:18:55;;;;;;;46.08;4.13;;;;;;;6.81;100.00;102048.81;5014559;28;20482;-42
2023/01/31 09:21:22;;;;;;;39.17;3.78;;;;;;;7.06;100.00;102036.06;5014807;28;20366;-41
2023/01/31 09:23:52;;;;;;;28.13;3.33;;;;;;;7.24;100.00;102039.84;5015147;28;20033;-41
2023/01/31 09:26:18;;;;;;;22.75;2.90;;;;;;;7.31;100.00;102024.09;5014722;28;20438;-41
2023/01/31 09:28:44;;;;;;;30.30;3.53;;;;;;;7.44;100.00;102016.69;5014339;28;20040;-41
2023/01/31 09:31:12;;;;;;;33.70;3.78;;;;;;;7.41;100.00;102016.97;5014326;28;20553;-42
2023/01/31 09:33:38;;;;;;;35.53;5.05;;;;;;;7.34;100.00;102009.59;5014273;28;20061;-42
2023/01/31 09:36:06;;;;;;;30.23;3.67;;;;;;;7.17;100.00;102011.91;5014350;28;20485;-42
2023/01/31 09:38:31;;;;;;;37.72;4.13;;;;;;;7.03;100.00;102002.38;5013932;28;20492;-41
2023/01/31 09:40:59;;;;;;;38.67;4.10;;;;;;;7.03;100.00;102018.44;5014397;28;20034;-41
2023/01/31 09:43:29;;;;;;;36.67;3.92;;;;;;;7.08;100.00;102017.19;5014611;28;20017;-42
2023/01/31 09:45:59;;;;;;;37.13;4.80;;;;;;;7.00;100.00;102023.19;5029049;28;20179;-42
2023/01/31 09:48:28;;;;;;;36.55;4.60;;;;;;;7.01;100.00;102025.75;5032805;28;20029;-42
2023/01/31 09:50:55;;;;;;;35.72;3.92;;;;;;;7.10;100.00;102024.09;5034266;28;20112;-41
2023/01/31 09:53:22;;;;;;;25.70;3.58;;;;;;;7.24;100.00;102026.47;5033128;28;20392;-41
2023/01/31 09:56:03;;;;;;;54.63;6.47;;;;;;;7.36;100.00;102021.03;5032825;28;20485;-42
2023/01/31 09:58:58;;;;;;;37.13;4.97;;;;;;;7.30;100.00;102019.72;5033993;28;20091;-43
2023/01/31 10:01:36;;;;;;;34.58;4.32;;;;;;;7.32;100.00;102038.34;5032822;28;20064;-43
2023/01/31 10:04:16;;;;;;;42.08;4.38;;;;;;;7.30;100.00;102034.97;5034021;28;20034;-41
2023/01/31 10:06:55;;;;;;;28.10;4.05;;;;;;;7.32;100.00;102039.22;5034282;28;20036;-42
2023/01/31 10:09:41;;;;;;;40.47;4.18;;;;;;;7.25;100.00;102041.53;5034205;28;20429;-42
2023/01/31 10:12:13;;;;;;;42.83;4.03;;;;;;;7.30;100.00;102056.38;5034394;28;20038;-41
2023/01/31 10:14:49;;;;;;;31.90;3.80;;;;;;;7.30;100.00;102046.50;5028048;28;20026;-44
2023/01/31 10:17:32;;;;;;;40.22;3.80;;;;;;;7.31;100.00;102058.06;5013017;28;20430;-42
2023/01/31 10:20:18;;;;;;;37.25;3.97;;;;;;;7.32;100.00;102057.06;5012832;28;20022;-42
2023/01/31 10:22:53;;;;;;;42.13;4.97;;;;;;;7.35;100.00;102038.94;5013425;28;20481;-42
2023/01/31 10:25:27;;;;;;;40.33;4.30;;;;;;;7.34;100.00;102041.72;5012580;28;20032;-42
2023/01/31 10:28:05;;;;;;;46.83;4.32;;;;;;;7.37;100.00;102047.69;5012569;28;20064;-42
2023/01/31 10:30:44;;;;;;;39.42;3.80;;;;;;;7.42;100.00;102058.00;5012109;28;20385;-43
2023/01/31 10:33:50;;;;;;;31.30;3.20;;;;;;;7.47;100.00;102053.09;5012295;28;20061;-43
2023/01/31 10:36:26;;;;;;;35.50;3.88;;;;;;;7.55;100.00;102044.41;5013729;28;20088;-41
2023/01/31 10:39:05;;;;;;;48.22;4.93;;;;;;;7.61;100.00;102028.66;5013364;28;20049;-42
2023/01/31 10:41:39;;;;;;;34.05;4.13;;;;;;;7.61;100.00;102034.00;5012453;28;20030;-43
2023/01/31 10:44:22;;;;;;;32.67;3.17;;;;;;;7.64;100.00;102039.09;5012640;28;20026;-42
2023/01/31 10:46:47;;;;;;;37.22;4.25;;;;;;;7.65;100.00;102030.06;5013407;28;20092;-42
2023/01/31 10:49:13;;;;;;;35.78;4.25;;;;;;;7.68;100.00;102035.16;5013477;28;20389;-42
2023/01/31 10:51:54;;;;;;;34.92;3.45;;;;;;;7.65;100.00;102029.22;5013455;28;20029;-43
2023/01/31 10:54:40;;;;;;;38.40;4.35;;;;;;;7.69;100.00;102038.72;5013195;28;20029;-42
2023/01/31 10:57:05;;;;;;;47.35;4.90;;;;;;;7.65;100.00;102035.44;4995889;28;20026;-41
2023/01/31 10:59:35;;;;;;;44.53;4.20;;;;;;;7.69;100.00;102044.91;5011629;28;20026;-41
2023/01/31 11:02:01;;;;;;;31.15;3.65;;;;;;;7.75;100.00;102059.59;5013452;28;20080;-43
2023/01/31 11:04:33;;;;;;;38.95;5.03;;;;;;;7.74;100.00;102055.22;5013468;28;20022;-43
2023/01/31 11:07:00;;;;;;;39.47;4.45;;;;;;;7.72;100.00;102053.66;5012071;28;20025;-43
2023/01/31 11:09:29;;;;;;;38.50;5.05;;;;;;;7.75;100.00;102061.44;5011897;28;20026;-42
2023/01/31 11:12:03;;;;;;;46.13;4.22;;;;;;;7.71;100.00;102055.47;5012460;28;20049;-43
2023/01/31 11:14:30;;;;;;;45.90;3.90;;;;;;;7.67;100.00;102049.53;5013604;28;20053;-43
2023/01/31 11:17:01;;;;;;;34.97;4.03;;;;;;;7.65;100.00;102048.81;5013558;28;20022;-42
2023/01/31 11:19:43;;;;;;;34.35;4.55;;;;;;;7.62;100.00;102051.78;5013214;28;20472;-42
2023/01/31 11:22:19;;;;;;;29.75;4.07;;;;;;;7.60;100.00;102059.09;5013539;28;20058;-42
2023/01/31 11:24:46;;;;;;;26.23;3.58;;;;;;;7.58;100.00;102055.72;5012129;28;20034;-42
2023/01/31 11:27:19;;;;;;;37.95;3.55;;;;;;;7.57;100.00;102053.16;5012123;28;20049;-42
2023/01/31 11:29:48;;;;;;;39.88;4.72;;;;;;;7.57;100.00;102056.69;5013513;28;20029;-42
2023/01/31 11:32:18;;;;;;;36.33;4.65;;;;;;;7.59;100.00;102060.09;5012410;28;20425;-43
2023/01/31 11:35:03;;;;;;;39.83;3.85;;;;;;;7.58;100.00;102050.34;5013019;28;20540;-43
2023/01/31 11:37:30;;;;;;;37.20;4.55;;;;;;;7.55;100.00;102055.94;5013770;28;20084;-42